This is the latest recevied weather packets stored in our database for station/object HARMALA. If no packets are shown the sender has not sent any weather packets the latest 10 day(s).
| Time | Temp. | Humidity | Pressure | Rain* | Wind** | Luminosity | Snow |
|---|---|---|---|---|---|---|---|
| 1777752427 | 11.67° C | 50% | 1006.6 hPa | 0 mm | - | - | - |
| 1777751226 | 11.67° C | 48% | 1006.8 hPa | 0 mm | - | - | - |
| 1777750026 | 11.67° C | 46% | 1006.7 hPa | 0 mm | - | - | - |
| 1777748826 | 13.33° C | 40% | 1006.7 hPa | 0 mm | - | - | - |
| 1777747626 | 13.89° C | 38% | 1006.6 hPa | 0 mm | - | - | - |
| 1777746426 | 14.44° C | 37% | 1006.5 hPa | 0 mm | - | - | - |
| 1777745225 | 15° C | 36% | 1006.4 hPa | 0 mm | - | - | - |
| 1777744026 | 15.56° C | 34% | 1006.4 hPa | 0 mm | - | - | - |
| 1777742826 | 16.11° C | 33% | 1006.5 hPa | 0 mm | - | - | - |
| 1777741625 | 16.11° C | 32% | 1006.5 hPa | 0 mm | - | - | - |
| 1777740425 | 16.67° C | 31% | 1006.5 hPa | 0 mm | - | - | - |
| 1777739225 | 16.67° C | 31% | 1006.7 hPa | 0 mm | - | - | - |
| 1777738025 | 17.22° C | 30% | 1006.7 hPa | 0 mm | - | - | - |
| 1777736825 | 17.78° C | 31% | 1006.8 hPa | 0 mm | - | - | - |
| 1777735625 | 17.78° C | 31% | 1007 hPa | 0 mm | - | - | - |
| 1777734426 | 17.78° C | 30% | 1007 hPa | 0 mm | - | - | - |
| 1777733225 | 17.78° C | 30% | 1007 hPa | 0 mm | - | - | - |
| 1777732025 | 18.33° C | 30% | 1007 hPa | 0 mm | - | - | - |
| 1777729625 | 18.33° C | 29% | 1007.1 hPa | 0 mm | - | - | - |
| 1777728425 | 18.33° C | 30% | 1007.1 hPa | 0 mm | - | - | - |
| 1777727225 | 18.33° C | 29% | 1007.1 hPa | 0 mm | - | - | - |
| 1777726025 | 18.89° C | 25% | 1007.1 hPa | 0 mm | - | - | - |
| 1777724825 | 18.89° C | 25% | 1007 hPa | 0 mm | - | - | - |
| 1777723625 | 19.44° C | 25% | 1007.2 hPa | 0 mm | - | - | - |
| 1777722425 | 18.89° C | 25% | 1007.3 hPa | 0 mm | - | - | - |
* Rain latest hour (hover to see other rain measurements)
** Current wind speed in m/s (hover to see current wind gust speed)